sensor_id;sensor_type;location;lat;lon;timestamp;temperature;humidity
20125;DHT22;10223;50.862;4.360;2023-12-04T00:02:08;3.50;99.90
20125;DHT22;10223;50.862;4.360;2023-12-04T00:04:35;3.60;99.90
20125;DHT22;10223;50.862;4.360;2023-12-04T00:07:02;3.50;99.90
20125;DHT22;10223;50.862;4.360;2023-12-04T00:09:29;3.60;99.90
20125;DHT22;10223;50.862;4.360;2023-12-04T00:11:56;3.50;99.90
20125;DHT22;10223;50.862;4.360;2023-12-04T00:14:24;3.50;99.90
20125;DHT22;10223;50.862;4.360;2023-12-04T00:16:51;3.50;99.90
20125;DHT22;10223;50.862;4.360;2023-12-04T00:19:18;3.50;99.90
20125;DHT22;10223;50.862;4.360;2023-12-04T00:21:44;3.60;99.90
20125;DHT22;10223;50.862;4.360;2023-12-04T00:24:11;3.60;99.90
20125;DHT22;10223;50.862;4.360;2023-12-04T00:26:38;3.60;99.90
20125;DHT22;10223;50.862;4.360;2023-12-04T00:29:05;3.60;99.90
20125;DHT22;10223;50.862;4.360;2023-12-04T00:31:33;3.60;99.90
20125;DHT22;10223;50.862;4.360;2023-12-04T00:34:00;3.70;99.90
20125;DHT22;10223;50.862;4.360;2023-12-04T00:36:27;3.70;99.90
20125;DHT22;10223;50.862;4.360;2023-12-04T00:38:54;3.70;99.90
20125;DHT22;10223;50.862;4.360;2023-12-04T00:41:20;3.70;99.90
20125;DHT22;10223;50.862;4.360;2023-12-04T00:43:47;3.80;99.90
20125;DHT22;10223;50.862;4.360;2023-12-04T00:46:14;3.80;99.90
20125;DHT22;10223;50.862;4.360;2023-12-04T00:48:42;3.80;99.90
20125;DHT22;10223;50.862;4.360;2023-12-04T00:51:11;3.80;99.90
20125;DHT22;10223;50.862;4.360;2023-12-04T00:53:38;3.80;99.90
20125;DHT22;10223;50.862;4.360;2023-12-04T00:56:06;3.80;99.90
20125;DHT22;10223;50.862;4.360;2023-12-04T00:58:33;3.80;99.90
20125;DHT22;10223;50.862;4.360;2023-12-04T01:01:00;3.80;99.90
20125;DHT22;10223;50.862;4.360;2023-12-04T01:03:27;3.70;99.90
20125;DHT22;10223;50.862;4.360;2023-12-04T01:05:55;3.70;99.90
20125;DHT22;10223;50.862;4.360;2023-12-04T01:08:22;3.80;99.90
20125;DHT22;10223;50.862;4.360;2023-12-04T01:10:49;3.80;99.90
20125;DHT22;10223;50.862;4.360;2023-12-04T01:13:16;3.80;99.90
20125;DHT22;10223;50.862;4.360;2023-12-04T01:15:43;3.80;99.90
20125;DHT22;10223;50.862;4.360;2023-12-04T01:18:12;3.80;99.90
20125;DHT22;10223;50.862;4.360;2023-12-04T01:20:39;3.80;99.90
20125;DHT22;10223;50.862;4.360;2023-12-04T01:23:07;3.80;99.90
20125;DHT22;10223;50.862;4.360;2023-12-04T01:25:33;3.80;99.90
20125;DHT22;10223;50.862;4.360;2023-12-04T01:28:00;3.80;99.90
20125;DHT22;10223;50.862;4.360;2023-12-04T01:30:27;3.80;99.90
20125;DHT22;10223;50.862;4.360;2023-12-04T01:32:54;3.80;99.90
20125;DHT22;10223;50.862;4.360;2023-12-04T01:35:21;3.90;99.90
20125;DHT22;10223;50.862;4.360;2023-12-04T01:37:48;3.70;99.90
20125;DHT22;10223;50.862;4.360;2023-12-04T01:40:16;3.80;99.90
20125;DHT22;10223;50.862;4.360;2023-12-04T01:42:43;3.80;99.90
20125;DHT22;10223;50.862;4.360;2023-12-04T01:45:10;3.90;99.90
20125;DHT22;10223;50.862;4.360;2023-12-04T01:47:37;3.90;99.90
20125;DHT22;10223;50.862;4.360;2023-12-04T01:50:05;3.80;99.90
20125;DHT22;10223;50.862;4.360;2023-12-04T01:52:32;3.90;99.90
20125;DHT22;10223;50.862;4.360;2023-12-04T01:54:59;4.00;99.90
20125;DHT22;10223;50.862;4.360;2023-12-04T01:57:28;4.00;99.90
20125;DHT22;10223;50.862;4.360;2023-12-04T01:59:55;4.00;99.90
20125;DHT22;10223;50.862;4.360;2023-12-04T02:02:22;3.90;99.90
20125;DHT22;10223;50.862;4.360;2023-12-04T02:04:49;3.90;99.90
20125;DHT22;10223;50.862;4.360;2023-12-04T02:07:16;4.00;99.90
20125;DHT22;10223;50.862;4.360;2023-12-04T02:09:43;4.00;99.90
20125;DHT22;10223;50.862;4.360;2023-12-04T02:12:10;4.00;99.90
20125;DHT22;10223;50.862;4.360;2023-12-04T02:14:38;4.00;99.90
20125;DHT22;10223;50.862;4.360;2023-12-04T02:17:05;4.00;99.90
20125;DHT22;10223;50.862;4.360;2023-12-04T02:19:34;4.10;99.90
20125;DHT22;10223;50.862;4.360;2023-12-04T02:22:01;4.10;99.90
20125;DHT22;10223;50.862;4.360;2023-12-04T02:24:29;4.10;99.90
20125;DHT22;10223;50.862;4.360;2023-12-04T02:27:06;4.10;99.90
20125;DHT22;10223;50.862;4.360;2023-12-04T02:29:39;4.10;99.90
20125;DHT22;10223;50.862;4.360;2023-12-04T02:32:10;4.10;99.90
20125;DHT22;10223;50.862;4.360;2023-12-04T02:34:40;4.10;99.90
20125;DHT22;10223;50.862;4.360;2023-12-04T02:37:08;4.10;99.90
20125;DHT22;10223;50.862;4.360;2023-12-04T02:39:46;4.00;99.90
20125;DHT22;10223;50.862;4.360;2023-12-04T02:42:15;4.00;99.90
20125;DHT22;10223;50.862;4.360;2023-12-04T02:44:42;3.90;99.90
20125;DHT22;10223;50.862;4.360;2023-12-04T02:47:09;3.90;99.90
20125;DHT22;10223;50.862;4.360;2023-12-04T02:49:36;3.90;99.90
20125;DHT22;10223;50.862;4.360;2023-12-04T02:52:04;3.90;99.90
20125;DHT22;10223;50.862;4.360;2023-12-04T02:54:31;3.90;99.90
20125;DHT22;10223;50.862;4.360;2023-12-04T02:56:59;3.90;99.90
20125;DHT22;10223;50.862;4.360;2023-12-04T02:59:26;3.80;99.90
20125;DHT22;10223;50.862;4.360;2023-12-04T03:01:53;3.90;99.90
20125;DHT22;10223;50.862;4.360;2023-12-04T03:04:20;3.90;99.90
20125;DHT22;10223;50.862;4.360;2023-12-04T03:06:47;3.80;99.90
20125;DHT22;10223;50.862;4.360;2023-12-04T03:09:14;3.80;99.90
20125;DHT22;10223;50.862;4.360;2023-12-04T03:11:41;3.90;99.90
20125;DHT22;10223;50.862;4.360;2023-12-04T03:14:10;4.00;99.90
20125;DHT22;10223;50.862;4.360;2023-12-04T03:16:37;4.00;99.90
20125;DHT22;10223;50.862;4.360;2023-12-04T03:19:04;4.10;99.90
20125;DHT22;10223;50.862;4.360;2023-12-04T03:21:31;4.00;99.90
20125;DHT22;10223;50.862;4.360;2023-12-04T03:23:58;4.10;99.90
20125;DHT22;10223;50.862;4.360;2023-12-04T03:26:24;4.00;99.90
20125;DHT22;10223;50.862;4.360;2023-12-04T03:28:51;4.00;99.90
20125;DHT22;10223;50.862;4.360;2023-12-04T03:31:20;4.10;99.90
20125;DHT22;10223;50.862;4.360;2023-12-04T03:33:47;3.90;99.90
20125;DHT22;10223;50.862;4.360;2023-12-04T03:36:14;4.00;99.90
20125;DHT22;10223;50.862;4.360;2023-12-04T03:38:41;4.00;99.90
20125;DHT22;10223;50.862;4.360;2023-12-04T03:41:13;4.00;99.90
20125;DHT22;10223;50.862;4.360;2023-12-04T03:43:41;4.00;99.90
20125;DHT22;10223;50.862;4.360;2023-12-04T03:46:07;4.10;99.90
20125;DHT22;10223;50.862;4.360;2023-12-04T03:48:36;4.00;99.90
20125;DHT22;10223;50.862;4.360;2023-12-04T03:51:04;4.00;99.90
20125;DHT22;10223;50.862;4.360;2023-12-04T03:53:30;4.00;99.90
20125;DHT22;10223;50.862;4.360;2023-12-04T03:55:58;3.90;99.90
20125;DHT22;10223;50.862;4.360;2023-12-04T03:58:25;3.90;99.90
20125;DHT22;10223;50.862;4.360;2023-12-04T04:00:52;3.90;99.90
20125;DHT22;10223;50.862;4.360;2023-12-04T04:03:18;3.90;99.90
20125;DHT22;10223;50.862;4.360;2023-12-04T04:05:47;3.90;99.90
20125;DHT22;10223;50.862;4.360;2023-12-04T04:08:14;3.80;99.90
20125;DHT22;10223;50.862;4.360;2023-12-04T04:10:41;3.80;99.90
20125;DHT22;10223;50.862;4.360;2023-12-04T04:13:08;3.90;99.90
20125;DHT22;10223;50.862;4.360;2023-12-04T04:15:34;3.80;99.90
20125;DHT22;10223;50.862;4.360;2023-12-04T04:18:01;3.90;99.90
20125;DHT22;10223;50.862;4.360;2023-12-04T04:20:28;4.00;99.90
20125;DHT22;10223;50.862;4.360;2023-12-04T04:22:56;4.10;99.90
20125;DHT22;10223;50.862;4.360;2023-12-04T04:25:23;4.10;99.90
20125;DHT22;10223;50.862;4.360;2023-12-04T04:27:50;4.10;99.90
20125;DHT22;10223;50.862;4.360;2023-12-04T04:30:17;4.00;99.90
20125;DHT22;10223;50.862;4.360;2023-12-04T04:32:44;3.90;99.90
20125;DHT22;10223;50.862;4.360;2023-12-04T04:35:11;3.90;99.90
20125;DHT22;10223;50.862;4.360;2023-12-04T04:37:37;4.00;99.90
20125;DHT22;10223;50.862;4.360;2023-12-04T04:40:07;3.90;99.90
20125;DHT22;10223;50.862;4.360;2023-12-04T04:42:34;3.90;99.90
20125;DHT22;10223;50.862;4.360;2023-12-04T04:45:01;3.90;99.90
20125;DHT22;10223;50.862;4.360;2023-12-04T04:47:27;4.00;99.90
20125;DHT22;10223;50.862;4.360;2023-12-04T04:49:54;4.10;99.90
20125;DHT22;10223;50.862;4.360;2023-12-04T04:52:21;4.10;99.90
20125;DHT22;10223;50.862;4.360;2023-12-04T04:54:48;4.10;99.90
20125;DHT22;10223;50.862;4.360;2023-12-04T04:57:16;4.10;99.90
20125;DHT22;10223;50.862;4.360;2023-12-04T04:59:43;4.20;99.90
20125;DHT22;10223;50.862;4.360;2023-12-04T05:02:10;4.20;99.90
20125;DHT22;10223;50.862;4.360;2023-12-04T05:04:37;4.20;99.90
20125;DHT22;10223;50.862;4.360;2023-12-04T05:07:04;4.20;99.90
20125;DHT22;10223;50.862;4.360;2023-12-04T05:09:31;4.20;99.90
20125;DHT22;10223;50.862;4.360;2023-12-04T05:11:57;4.30;99.90
20125;DHT22;10223;50.862;4.360;2023-12-04T05:14:26;4.30;99.90
20125;DHT22;10223;50.862;4.360;2023-12-04T05:16:53;4.30;99.90
20125;DHT22;10223;50.862;4.360;2023-12-04T05:19:19;4.30;99.90
20125;DHT22;10223;50.862;4.360;2023-12-04T05:21:46;4.40;99.90
20125;DHT22;10223;50.862;4.360;2023-12-04T05:24:13;4.30;99.90
20125;DHT22;10223;50.862;4.360;2023-12-04T05:26:40;4.30;99.90
20125;DHT22;10223;50.862;4.360;2023-12-04T05:29:07;4.30;99.90
20125;DHT22;10223;50.862;4.360;2023-12-04T05:31:35;4.40;99.90
20125;DHT22;10223;50.862;4.360;2023-12-04T05:34:02;4.30;99.90
20125;DHT22;10223;50.862;4.360;2023-12-04T05:36:29;4.50;99.90
20125;DHT22;10223;50.862;4.360;2023-12-04T05:38:56;4.50;99.90
20125;DHT22;10223;50.862;4.360;2023-12-04T05:41:23;4.50;99.90
20125;DHT22;10223;50.862;4.360;2023-12-04T05:43:50;4.50;99.90
20125;DHT22;10223;50.862;4.360;2023-12-04T05:46:17;4.40;99.90
20125;DHT22;10223;50.862;4.360;2023-12-04T05:48:45;4.50;99.90
20125;DHT22;10223;50.862;4.360;2023-12-04T05:51:12;4.50;99.90
20125;DHT22;10223;50.862;4.360;2023-12-04T05:53:40;4.50;99.90
20125;DHT22;10223;50.862;4.360;2023-12-04T05:56:08;4.40;99.90
20125;DHT22;10223;50.862;4.360;2023-12-04T05:58:35;4.30;99.90
20125;DHT22;10223;50.862;4.360;2023-12-04T06:01:02;4.20;99.90
20125;DHT22;10223;50.862;4.360;2023-12-04T06:03:29;4.20;99.90
20125;DHT22;10223;50.862;4.360;2023-12-04T06:05:58;4.20;99.90
20125;DHT22;10223;50.862;4.360;2023-12-04T06:08:25;4.20;99.90
20125;DHT22;10223;50.862;4.360;2023-12-04T06:10:51;4.20;99.90
20125;DHT22;10223;50.862;4.360;2023-12-04T06:13:18;4.10;99.90
20125;DHT22;10223;50.862;4.360;2023-12-04T06:15:45;4.20;99.90
20125;DHT22;10223;50.862;4.360;2023-12-04T06:18:12;4.10;99.90
20125;DHT22;10223;50.862;4.360;2023-12-04T06:20:39;4.20;99.90
20125;DHT22;10223;50.862;4.360;2023-12-04T06:23:08;4.20;99.90
20125;DHT22;10223;50.862;4.360;2023-12-04T06:25:36;4.10;99.90
20125;DHT22;10223;50.862;4.360;2023-12-04T06:28:04;4.10;99.90
20125;DHT22;10223;50.862;4.360;2023-12-04T06:30:31;4.20;99.90
20125;DHT22;10223;50.862;4.360;2023-12-04T06:32:59;4.20;99.90
20125;DHT22;10223;50.862;4.360;2023-12-04T06:35:26;4.20;99.90
20125;DHT22;10223;50.862;4.360;2023-12-04T06:37:54;4.20;99.90
20125;DHT22;10223;50.862;4.360;2023-12-04T06:40:23;4.20;99.90
20125;DHT22;10223;50.862;4.360;2023-12-04T06:42:50;4.20;99.90
20125;DHT22;10223;50.862;4.360;2023-12-04T06:45:19;4.20;99.90
20125;DHT22;10223;50.862;4.360;2023-12-04T06:47:46;4.20;99.90
20125;DHT22;10223;50.862;4.360;2023-12-04T06:50:16;4.20;99.90
20125;DHT22;10223;50.862;4.360;2023-12-04T06:52:43;4.20;99.90
20125;DHT22;10223;50.862;4.360;2023-12-04T06:55:11;4.30;99.90
20125;DHT22;10223;50.862;4.360;2023-12-04T06:57:40;4.20;99.90
20125;DHT22;10223;50.862;4.360;2023-12-04T07:00:07;4.20;99.90
20125;DHT22;10223;50.862;4.360;2023-12-04T07:02:38;4.20;99.90
20125;DHT22;10223;50.862;4.360;2023-12-04T07:05:05;4.20;99.90
20125;DHT22;10223;50.862;4.360;2023-12-04T07:07:32;4.20;99.90
20125;DHT22;10223;50.862;4.360;2023-12-04T07:09:59;4.20;99.90
20125;DHT22;10223;50.862;4.360;2023-12-04T07:12:26;4.30;99.90
20125;DHT22;10223;50.862;4.360;2023-12-04T07:14:54;4.30;99.90
20125;DHT22;10223;50.862;4.360;2023-12-04T07:17:21;4.30;99.90
20125;DHT22;10223;50.862;4.360;2023-12-04T07:19:48;4.30;99.90
20125;DHT22;10223;50.862;4.360;2023-12-04T07:22:15;4.30;99.90
20125;DHT22;10223;50.862;4.360;2023-12-04T07:24:42;4.30;99.90
20125;DHT22;10223;50.862;4.360;2023-12-04T07:27:09;4.30;99.90
20125;DHT22;10223;50.862;4.360;2023-12-04T07:29:36;4.20;99.90
20125;DHT22;10223;50.862;4.360;2023-12-04T07:32:06;4.20;99.90
20125;DHT22;10223;50.862;4.360;2023-12-04T07:34:33;4.20;99.90
20125;DHT22;10223;50.862;4.360;2023-12-04T07:37:00;4.10;99.90
20125;DHT22;10223;50.862;4.360;2023-12-04T07:39:28;4.10;99.90
20125;DHT22;10223;50.862;4.360;2023-12-04T07:41:55;4.10;99.90
20125;DHT22;10223;50.862;4.360;2023-12-04T07:44:22;4.20;99.90
20125;DHT22;10223;50.862;4.360;2023-12-04T07:46:48;4.10;99.90
20125;DHT22;10223;50.862;4.360;2023-12-04T07:49:17;4.10;99.90
20125;DHT22;10223;50.862;4.360;2023-12-04T07:51:44;4.00;99.90
20125;DHT22;10223;50.862;4.360;2023-12-04T07:54:11;4.00;99.90
20125;DHT22;10223;50.862;4.360;2023-12-04T07:56:38;4.10;99.90
20125;DHT22;10223;50.862;4.360;2023-12-04T07:59:04;4.00;99.90
20125;DHT22;10223;50.862;4.360;2023-12-04T08:01:31;3.90;99.90
20125;DHT22;10223;50.862;4.360;2023-12-04T08:03:58;3.90;99.90
20125;DHT22;10223;50.862;4.360;2023-12-04T08:06:26;3.90;99.90
20125;DHT22;10223;50.862;4.360;2023-12-04T08:08:53;4.00;99.90
20125;DHT22;10223;50.862;4.360;2023-12-04T08:11:21;3.90;99.90
20125;DHT22;10223;50.862;4.360;2023-12-04T08:13:48;4.00;99.90
20125;DHT22;10223;50.862;4.360;2023-12-04T08:16:15;3.90;99.90
20125;DHT22;10223;50.862;4.360;2023-12-04T08:18:42;3.90;99.90
20125;DHT22;10223;50.862;4.360;2023-12-04T08:21:09;3.90;99.90
20125;DHT22;10223;50.862;4.360;2023-12-04T08:23:38;3.90;99.90
20125;DHT22;10223;50.862;4.360;2023-12-04T08:26:06;3.90;99.90
20125;DHT22;10223;50.862;4.360;2023-12-04T08:28:33;3.90;99.90
20125;DHT22;10223;50.862;4.360;2023-12-04T08:31:00;3.90;99.90
20125;DHT22;10223;50.862;4.360;2023-12-04T08:33:27;3.90;99.90
20125;DHT22;10223;50.862;4.360;2023-12-04T08:35:54;3.90;99.90
20125;DHT22;10223;50.862;4.360;2023-12-04T08:38:21;3.80;99.90
20125;DHT22;10223;50.862;4.360;2023-12-04T08:40:50;3.80;99.90
20125;DHT22;10223;50.862;4.360;2023-12-04T08:43:17;3.80;99.90
20125;DHT22;10223;50.862;4.360;2023-12-04T08:45:45;3.80;99.90
20125;DHT22;10223;50.862;4.360;2023-12-04T08:48:12;3.80;99.90
20125;DHT22;10223;50.862;4.360;2023-12-04T08:50:39;3.70;99.90
20125;DHT22;10223;50.862;4.360;2023-12-04T08:53:06;3.70;99.90
20125;DHT22;10223;50.862;4.360;2023-12-04T08:55:33;3.70;99.90
20125;DHT22;10223;50.862;4.360;2023-12-04T08:58:01;3.70;99.90
20125;DHT22;10223;50.862;4.360;2023-12-04T09:00:28;3.70;99.90
20125;DHT22;10223;50.862;4.360;2023-12-04T09:02:55;3.70;99.90
20125;DHT22;10223;50.862;4.360;2023-12-04T09:05:22;3.70;99.90
20125;DHT22;10223;50.862;4.360;2023-12-04T09:07:49;3.70;99.90
20125;DHT22;10223;50.862;4.360;2023-12-04T09:10:16;3.60;99.90
20125;DHT22;10223;50.862;4.360;2023-12-04T09:12:43;3.60;99.90
20125;DHT22;10223;50.862;4.360;2023-12-04T09:15:11;3.60;99.90
20125;DHT22;10223;50.862;4.360;2023-12-04T09:17:37;3.60;99.90
20125;DHT22;10223;50.862;4.360;2023-12-04T09:20:05;3.60;99.90
20125;DHT22;10223;50.862;4.360;2023-12-04T09:22:32;3.60;99.90
20125;DHT22;10223;50.862;4.360;2023-12-04T09:25:00;3.60;99.90
20125;DHT22;10223;50.862;4.360;2023-12-04T09:27:27;3.60;99.90
20125;DHT22;10223;50.862;4.360;2023-12-04T09:29:54;3.60;99.90
20125;DHT22;10223;50.862;4.360;2023-12-04T09:32:22;3.60;99.90
20125;DHT22;10223;50.862;4.360;2023-12-04T09:34:50;3.50;99.90
20125;DHT22;10223;50.862;4.360;2023-12-04T09:37:17;3.50;99.90
20125;DHT22;10223;50.862;4.360;2023-12-04T09:39:44;3.50;99.90
20125;DHT22;10223;50.862;4.360;2023-12-04T09:42:12;3.40;99.90
20125;DHT22;10223;50.862;4.360;2023-12-04T09:44:39;3.40;99.90
20125;DHT22;10223;50.862;4.360;2023-12-04T09:47:08;3.50;99.90
20125;DHT22;10223;50.862;4.360;2023-12-04T09:49:37;3.40;99.90
20125;DHT22;10223;50.862;4.360;2023-12-04T09:52:05;3.40;99.90
20125;DHT22;10223;50.862;4.360;2023-12-04T09:54:33;3.20;99.90
20125;DHT22;10223;50.862;4.360;2023-12-04T09:57:03;3.10;99.90
20125;DHT22;10223;50.862;4.360;2023-12-04T09:59:30;3.10;99.90
20125;DHT22;10223;50.862;4.360;2023-12-04T10:01:58;2.90;99.90
20125;DHT22;10223;50.862;4.360;2023-12-04T10:04:25;2.80;99.90
20125;DHT22;10223;50.862;4.360;2023-12-04T10:06:54;2.90;99.90
20125;DHT22;10223;50.862;4.360;2023-12-04T10:09:21;2.80;99.90
20125;DHT22;10223;50.862;4.360;2023-12-04T10:11:50;2.90;99.90
20125;DHT22;10223;50.862;4.360;2023-12-04T10:14:19;2.80;99.90
20125;DHT22;10223;50.862;4.360;2023-12-04T10:16:47;2.70;99.90
20125;DHT22;10223;50.862;4.360;2023-12-04T10:19:16;2.70;99.90
20125;DHT22;10223;50.862;4.360;2023-12-04T10:21:44;2.70;99.90
20125;DHT22;10223;50.862;4.360;2023-12-04T10:24:13;2.70;99.90
20125;DHT22;10223;50.862;4.360;2023-12-04T10:26:53;2.70;99.90
20125;DHT22;10223;50.862;4.360;2023-12-04T10:29:20;2.60;99.90
20125;DHT22;10223;50.862;4.360;2023-12-04T10:31:47;2.60;99.90
20125;DHT22;10223;50.862;4.360;2023-12-04T10:34:16;2.60;99.90
20125;DHT22;10223;50.862;4.360;2023-12-04T10:36:42;2.70;99.90
20125;DHT22;10223;50.862;4.360;2023-12-04T10:39:12;2.60;99.90
20125;DHT22;10223;50.862;4.360;2023-12-04T10:41:40;2.60;99.90
20125;DHT22;10223;50.862;4.360;2023-12-04T10:44:08;2.60;99.90
20125;DHT22;10223;50.862;4.360;2023-12-04T10:46:36;2.60;99.90
20125;DHT22;10223;50.862;4.360;2023-12-04T10:49:04;2.70;99.90
20125;DHT22;10223;50.862;4.360;2023-12-04T10:51:31;2.70;99.90
20125;DHT22;10223;50.862;4.360;2023-12-04T10:53:58;2.80;99.90
20125;DHT22;10223;50.862;4.360;2023-12-04T10:56:33;2.80;99.90
20125;DHT22;10223;50.862;4.360;2023-12-04T10:59:00;2.90;99.90
20125;DHT22;10223;50.862;4.360;2023-12-04T11:01:29;2.90;99.90
20125;DHT22;10223;50.862;4.360;2023-12-04T11:03:59;3.10;99.90
20125;DHT22;10223;50.862;4.360;2023-12-04T11:06:35;3.20;99.90
20125;DHT22;10223;50.862;4.360;2023-12-04T11:09:06;3.10;99.90
20125;DHT22;10223;50.862;4.360;2023-12-04T11:11:36;3.30;99.90
20125;DHT22;10223;50.862;4.360;2023-12-04T11:14:08;3.30;99.90
20125;DHT22;10223;50.862;4.360;2023-12-04T11:16:41;3.30;99.90
20125;DHT22;10223;50.862;4.360;2023-12-04T11:19:14;3.30;99.90
20125;DHT22;10223;50.862;4.360;2023-12-04T11:21:45;3.30;99.90
20125;DHT22;10223;50.862;4.360;2023-12-04T11:24:12;3.30;99.90
20125;DHT22;10223;50.862;4.360;2023-12-04T11:26:41;3.50;99.90
20125;DHT22;10223;50.862;4.360;2023-12-04T11:29:09;3.40;99.90
20125;DHT22;10223;50.862;4.360;2023-12-04T11:31:38;3.50;99.90
20125;DHT22;10223;50.862;4.360;2023-12-04T11:34:07;3.50;99.90
20125;DHT22;10223;50.862;4.360;2023-12-04T11:36:35;3.50;99.90
20125;DHT22;10223;50.862;4.360;2023-12-04T11:39:02;3.50;99.90
20125;DHT22;10223;50.862;4.360;2023-12-04T11:41:31;3.50;99.90
20125;DHT22;10223;50.862;4.360;2023-12-04T11:43:59;3.50;99.90
20125;DHT22;10223;50.862;4.360;2023-12-04T11:46:28;3.60;99.90
20125;DHT22;10223;50.862;4.360;2023-12-04T11:48:57;3.50;99.90
20125;DHT22;10223;50.862;4.360;2023-12-04T11:51:46;3.60;99.90
20125;DHT22;10223;50.862;4.360;2023-12-04T11:54:17;3.60;99.90
20125;DHT22;10223;50.862;4.360;2023-12-04T11:57:00;3.60;99.90
20125;DHT22;10223;50.862;4.360;2023-12-04T11:59:30;3.60;99.90
20125;DHT22;10223;50.862;4.360;2023-12-04T12:02:01;3.60;99.90
20125;DHT22;10223;50.862;4.360;2023-12-04T12:04:28;3.60;99.90
20125;DHT22;10223;50.862;4.360;2023-12-04T12:06:55;3.80;99.90
20125;DHT22;10223;50.862;4.360;2023-12-04T12:09:22;3.70;99.90
20125;DHT22;10223;50.862;4.360;2023-12-04T12:11:49;3.70;99.90
20125;DHT22;10223;50.862;4.360;2023-12-04T12:14:20;3.60;99.90
20125;DHT22;10223;50.862;4.360;2023-12-04T12:16:48;3.70;99.90
20125;DHT22;10223;50.862;4.360;2023-12-04T12:19:15;3.70;99.90
20125;DHT22;10223;50.862;4.360;2023-12-04T12:21:44;3.80;99.90
20125;DHT22;10223;50.862;4.360;2023-12-04T12:24:13;3.90;99.90
20125;DHT22;10223;50.862;4.360;2023-12-04T12:26:40;3.90;99.90
20125;DHT22;10223;50.862;4.360;2023-12-04T12:29:09;3.90;99.90
20125;DHT22;10223;50.862;4.360;2023-12-04T12:31:35;3.90;99.90
20125;DHT22;10223;50.862;4.360;2023-12-04T12:34:04;4.10;99.90
20125;DHT22;10223;50.862;4.360;2023-12-04T12:36:32;4.00;99.90
20125;DHT22;10223;50.862;4.360;2023-12-04T12:38:59;4.00;99.90
20125;DHT22;10223;50.862;4.360;2023-12-04T12:41:29;4.00;99.90
20125;DHT22;10223;50.862;4.360;2023-12-04T12:43:56;4.10;99.90
20125;DHT22;10223;50.862;4.360;2023-12-04T12:46:23;4.10;99.90
20125;DHT22;10223;50.862;4.360;2023-12-04T12:48:50;4.10;99.90
20125;DHT22;10223;50.862;4.360;2023-12-04T12:51:19;4.10;99.90
20125;DHT22;10223;50.862;4.360;2023-12-04T12:53:47;4.20;99.90
20125;DHT22;10223;50.862;4.360;2023-12-04T12:56:14;4.20;99.90
20125;DHT22;10223;50.862;4.360;2023-12-04T12:58:42;4.20;99.90
20125;DHT22;10223;50.862;4.360;2023-12-04T13:01:10;4.20;99.90
20125;DHT22;10223;50.862;4.360;2023-12-04T13:03:36;4.20;99.90
20125;DHT22;10223;50.862;4.360;2023-12-04T13:06:05;4.30;99.90
20125;DHT22;10223;50.862;4.360;2023-12-04T13:08:33;4.20;99.90
20125;DHT22;10223;50.862;4.360;2023-12-04T13:11:00;4.10;99.90
20125;DHT22;10223;50.862;4.360;2023-12-04T13:13:28;4.20;99.90
20125;DHT22;10223;50.862;4.360;2023-12-04T13:15:55;4.10;99.90
20125;DHT22;10223;50.862;4.360;2023-12-04T13:18:22;4.20;99.90
20125;DHT22;10223;50.862;4.360;2023-12-04T13:20:49;4.20;99.90
20125;DHT22;10223;50.862;4.360;2023-12-04T13:23:16;4.20;99.90
20125;DHT22;10223;50.862;4.360;2023-12-04T13:25:44;4.10;99.90
20125;DHT22;10223;50.862;4.360;2023-12-04T13:28:11;4.10;99.90
20125;DHT22;10223;50.862;4.360;2023-12-04T13:30:39;4.10;99.90
20125;DHT22;10223;50.862;4.360;2023-12-04T13:33:06;4.20;99.90
20125;DHT22;10223;50.862;4.360;2023-12-04T13:35:33;4.30;99.90
20125;DHT22;10223;50.862;4.360;2023-12-04T13:38:00;4.20;99.90
20125;DHT22;10223;50.862;4.360;2023-12-04T13:40:27;4.20;99.90
20125;DHT22;10223;50.862;4.360;2023-12-04T13:42:59;4.30;99.90
20125;DHT22;10223;50.862;4.360;2023-12-04T13:45:43;4.10;99.90
20125;DHT22;10223;50.862;4.360;2023-12-04T13:48:10;4.10;99.90
20125;DHT22;10223;50.862;4.360;2023-12-04T13:50:37;4.10;99.90
20125;DHT22;10223;50.862;4.360;2023-12-04T13:53:04;4.20;99.90
20125;DHT22;10223;50.862;4.360;2023-12-04T13:55:33;4.20;99.90
20125;DHT22;10223;50.862;4.360;2023-12-04T13:58:23;4.20;99.90
20125;DHT22;10223;50.862;4.360;2023-12-04T14:01:07;4.20;99.90
20125;DHT22;10223;50.862;4.360;2023-12-04T14:03:39;4.20;99.90
20125;DHT22;10223;50.862;4.360;2023-12-04T14:06:07;4.30;99.90
20125;DHT22;10223;50.862;4.360;2023-12-04T14:08:34;4.20;99.90
20125;DHT22;10223;50.862;4.360;2023-12-04T14:11:01;4.20;99.90
20125;DHT22;10223;50.862;4.360;2023-12-04T14:13:31;4.20;99.90
20125;DHT22;10223;50.862;4.360;2023-12-04T14:15:58;4.30;99.90
20125;DHT22;10223;50.862;4.360;2023-12-04T14:18:25;4.30;99.90
20125;DHT22;10223;50.862;4.360;2023-12-04T14:20:52;4.20;99.90
20125;DHT22;10223;50.862;4.360;2023-12-04T14:23:19;4.20;99.90
20125;DHT22;10223;50.862;4.360;2023-12-04T14:25:47;4.30;99.90
20125;DHT22;10223;50.862;4.360;2023-12-04T14:28:14;4.20;99.90
20125;DHT22;10223;50.862;4.360;2023-12-04T14:30:42;4.30;99.90
20125;DHT22;10223;50.862;4.360;2023-12-04T14:33:10;4.30;99.90
20125;DHT22;10223;50.862;4.360;2023-12-04T14:35:37;4.40;99.90
20125;DHT22;10223;50.862;4.360;2023-12-04T14:38:04;4.40;99.90
20125;DHT22;10223;50.862;4.360;2023-12-04T14:40:31;4.50;99.90
20125;DHT22;10223;50.862;4.360;2023-12-04T14:42:58;4.40;99.90
20125;DHT22;10223;50.862;4.360;2023-12-04T14:45:25;4.40;99.90
20125;DHT22;10223;50.862;4.360;2023-12-04T14:47:54;4.50;99.90
20125;DHT22;10223;50.862;4.360;2023-12-04T14:50:23;4.50;99.90
20125;DHT22;10223;50.862;4.360;2023-12-04T14:52:50;4.50;99.90
20125;DHT22;10223;50.862;4.360;2023-12-04T14:55:20;4.50;99.90
20125;DHT22;10223;50.862;4.360;2023-12-04T14:58:30;4.50;99.90
20125;DHT22;10223;50.862;4.360;2023-12-04T15:01:33;4.50;99.90
20125;DHT22;10223;50.862;4.360;2023-12-04T15:04:21;4.50;99.90
20125;DHT22;10223;50.862;4.360;2023-12-04T15:07:04;4.50;99.90
20125;DHT22;10223;50.862;4.360;2023-12-04T15:10:02;4.50;99.90
20125;DHT22;10223;50.862;4.360;2023-12-04T15:12:57;4.50;99.90
20125;DHT22;10223;50.862;4.360;2023-12-04T15:15:38;4.60;99.90
20125;DHT22;10223;50.862;4.360;2023-12-04T15:18:28;4.60;99.90
20125;DHT22;10223;50.862;4.360;2023-12-04T15:21:04;4.60;99.90
20125;DHT22;10223;50.862;4.360;2023-12-04T15:23:33;4.60;99.90
20125;DHT22;10223;50.862;4.360;2023-12-04T15:25:58;4.60;99.90
20125;DHT22;10223;50.862;4.360;2023-12-04T15:28:27;4.70;99.90
20125;DHT22;10223;50.862;4.360;2023-12-04T15:30:54;4.70;99.90
20125;DHT22;10223;50.862;4.360;2023-12-04T15:33:21;4.70;99.90
20125;DHT22;10223;50.862;4.360;2023-12-04T15:35:51;4.70;99.90
20125;DHT22;10223;50.862;4.360;2023-12-04T15:38:19;4.80;99.90
20125;DHT22;10223;50.862;4.360;2023-12-04T15:40:47;5.00;99.90
20125;DHT22;10223;50.862;4.360;2023-12-04T15:43:13;4.90;99.90
20125;DHT22;10223;50.862;4.360;2023-12-04T15:45:40;4.90;99.90
20125;DHT22;10223;50.862;4.360;2023-12-04T15:48:06;5.00;99.90
20125;DHT22;10223;50.862;4.360;2023-12-04T15:50:33;4.90;99.90
20125;DHT22;10223;50.862;4.360;2023-12-04T15:53:00;4.90;99.90